sensor_id;sensor_type;location;lat;lon;timestamp;pressure;altitude;pressure_sealevel;temperature;humidity
70930;BME280;58588;48.102;19.682;2023-02-28T00:02:45;100497.94;;;-4.24;100.00
70930;BME280;58588;48.102;19.682;2023-02-28T00:05:47;100502.09;;;-4.18;100.00
70930;BME280;58588;48.102;19.682;2023-02-28T00:08:51;100492.41;;;-4.18;100.00
70930;BME280;58588;48.102;19.682;2023-02-28T00:11:53;100507.47;;;-4.21;100.00
70930;BME280;58588;48.102;19.682;2023-02-28T00:14:55;100508.53;;;-4.46;100.00
70930;BME280;58588;48.102;19.682;2023-02-28T00:17:57;100516.00;;;-4.55;100.00
70930;BME280;58588;48.102;19.682;2023-02-28T00:21:30;100508.88;;;-4.53;100.00
70930;BME280;58588;48.102;19.682;2023-02-28T00:24:34;100532.00;;;-4.21;100.00
70930;BME280;58588;48.102;19.682;2023-02-28T00:27:36;100542.66;;;-4.44;100.00
70930;BME280;58588;48.102;19.682;2023-02-28T00:30:39;100554.03;;;-4.44;100.00
70930;BME280;58588;48.102;19.682;2023-02-28T00:33:43;100553.59;;;-4.33;100.00
70930;BME280;58588;48.102;19.682;2023-02-28T00:36:45;100549.06;;;-4.29;100.00
70930;BME280;58588;48.102;19.682;2023-02-28T00:39:51;100552.75;;;-4.13;100.00
70930;BME280;58588;48.102;19.682;2023-02-28T00:42:54;100549.19;;;-4.12;100.00
70930;BME280;58588;48.102;19.682;2023-02-28T00:45:56;100557.09;;;-4.12;100.00
70930;BME280;58588;48.102;19.682;2023-02-28T00:48:58;100560.38;;;-4.07;100.00
70930;BME280;58588;48.102;19.682;2023-02-28T00:52:00;100559.13;;;-3.98;100.00
70930;BME280;58588;48.102;19.682;2023-02-28T00:55:04;100559.78;;;-3.93;100.00
70930;BME280;58588;48.102;19.682;2023-02-28T00:58:06;100561.94;;;-3.83;100.00
70930;BME280;58588;48.102;19.682;2023-02-28T01:01:08;100553.88;;;-3.80;100.00
70930;BME280;58588;48.102;19.682;2023-02-28T01:04:10;100561.44;;;-3.72;100.00
70930;BME280;58588;48.102;19.682;2023-02-28T01:07:13;100565.56;;;-3.66;100.00
70930;BME280;58588;48.102;19.682;2023-02-28T01:10:17;100560.03;;;-3.60;100.00
70930;BME280;58588;48.102;19.682;2023-02-28T01:13:19;100556.13;;;-3.70;100.00
70930;BME280;58588;48.102;19.682;2023-02-28T01:16:21;100561.09;;;-3.64;100.00
70930;BME280;58588;48.102;19.682;2023-02-28T01:19:23;100573.19;;;-3.60;100.00
70930;BME280;58588;48.102;19.682;2023-02-28T01:22:25;100564.97;;;-3.53;100.00
70930;BME280;58588;48.102;19.682;2023-02-28T01:25:29;100566.94;;;-3.58;100.00
70930;BME280;58588;48.102;19.682;2023-02-28T01:28:31;100568.72;;;-3.58;100.00
70930;BME280;58588;48.102;19.682;2023-02-28T01:31:33;100572.63;;;-3.48;100.00
70930;BME280;58588;48.102;19.682;2023-02-28T01:34:35;100577.06;;;-3.48;100.00
70930;BME280;58588;48.102;19.682;2023-02-28T01:37:37;100562.97;;;-3.47;100.00
70930;BME280;58588;48.102;19.682;2023-02-28T01:40:40;100561.69;;;-3.39;100.00
70930;BME280;58588;48.102;19.682;2023-02-28T01:44:01;100561.69;;;-3.39;100.00
70930;BME280;58588;48.102;19.682;2023-02-28T01:47:07;100570.03;;;-3.29;100.00
70930;BME280;58588;48.102;19.682;2023-02-28T01:50:12;100567.69;;;-3.35;100.00
70930;BME280;58588;48.102;19.682;2023-02-28T01:53:19;100564.69;;;-3.28;100.00
70930;BME280;58588;48.102;19.682;2023-02-28T01:56:26;100564.13;;;-3.34;100.00
70930;BME280;58588;48.102;19.682;2023-02-28T01:59:34;100560.53;;;-3.33;100.00
70930;BME280;58588;48.102;19.682;2023-02-28T02:02:38;100565.09;;;-3.37;100.00
70930;BME280;58588;48.102;19.682;2023-02-28T02:05:40;100564.19;;;-3.36;100.00
70930;BME280;58588;48.102;19.682;2023-02-28T02:08:48;100560.75;;;-3.38;100.00
70930;BME280;58588;48.102;19.682;2023-02-28T02:11:51;100563.81;;;-3.28;100.00
70930;BME280;58588;48.102;19.682;2023-02-28T02:15:01;100575.31;;;-3.29;100.00
70930;BME280;58588;48.102;19.682;2023-02-28T02:18:11;100578.72;;;-3.27;100.00
70930;BME280;58588;48.102;19.682;2023-02-28T02:25:10;100570.34;;;-3.18;100.00
70930;BME280;58588;48.102;19.682;2023-02-28T02:32:01;100559.81;;;-2.99;100.00
70930;BME280;58588;48.102;19.682;2023-02-28T02:35:15;100565.00;;;-2.98;100.00
70930;BME280;58588;48.102;19.682;2023-02-28T02:38:29;100562.50;;;-3.01;100.00
70930;BME280;58588;48.102;19.682;2023-02-28T02:41:36;100564.78;;;-2.93;100.00
70930;BME280;58588;48.102;19.682;2023-02-28T02:44:45;100567.47;;;-2.94;100.00
70930;BME280;58588;48.102;19.682;2023-02-28T02:47:50;100566.34;;;-2.89;100.00
70930;BME280;58588;48.102;19.682;2023-02-28T02:50:57;100562.00;;;-2.90;100.00
70930;BME280;58588;48.102;19.682;2023-02-28T02:54:04;100568.28;;;-2.92;100.00
70930;BME280;58588;48.102;19.682;2023-02-28T02:57:10;100579.19;;;-3.00;100.00
70930;BME280;58588;48.102;19.682;2023-02-28T03:00:16;100563.78;;;-2.90;100.00
70930;BME280;58588;48.102;19.682;2023-02-28T03:03:20;100569.41;;;-2.62;100.00
70930;BME280;58588;48.102;19.682;2023-02-28T03:06:30;100561.56;;;-2.81;100.00
70930;BME280;58588;48.102;19.682;2023-02-28T03:09:33;100578.38;;;-2.83;100.00
70930;BME280;58588;48.102;19.682;2023-02-28T03:12:41;100567.78;;;-2.82;100.00
70930;BME280;58588;48.102;19.682;2023-02-28T03:15:58;100568.25;;;-2.74;100.00
70930;BME280;58588;48.102;19.682;2023-02-28T03:19:16;100567.31;;;-2.73;100.00
70930;BME280;58588;48.102;19.682;2023-02-28T03:22:47;100566.38;;;-2.72;100.00
70930;BME280;58588;48.102;19.682;2023-02-28T03:25:56;100577.25;;;-2.60;100.00
70930;BME280;58588;48.102;19.682;2023-02-28T03:29:05;100559.50;;;-2.57;100.00
70930;BME280;58588;48.102;19.682;2023-02-28T03:32:16;100569.34;;;-2.43;100.00
70930;BME280;58588;48.102;19.682;2023-02-28T03:35:24;100569.75;;;-2.33;100.00
70930;BME280;58588;48.102;19.682;2023-02-28T03:38:32;100576.44;;;-2.26;100.00
70930;BME280;58588;48.102;19.682;2023-02-28T03:41:38;100577.59;;;-2.32;100.00
70930;BME280;58588;48.102;19.682;2023-02-28T03:44:43;100576.75;;;-2.32;100.00
70930;BME280;58588;48.102;19.682;2023-02-28T03:47:52;100576.75;;;-2.32;100.00
70930;BME280;58588;48.102;19.682;2023-02-28T03:50:56;100581.41;;;-2.20;100.00
70930;BME280;58588;48.102;19.682;2023-02-28T03:54:05;100578.91;;;-2.23;100.00
70930;BME280;58588;48.102;19.682;2023-02-28T03:57:12;100570.22;;;-2.25;100.00
70930;BME280;58588;48.102;19.682;2023-02-28T04:00:20;100570.59;;;-2.33;100.00
70930;BME280;58588;48.102;19.682;2023-02-28T04:03:23;100574.63;;;-2.26;100.00
70930;BME280;58588;48.102;19.682;2023-02-28T04:06:25;100576.44;;;-2.26;100.00
70930;BME280;58588;48.102;19.682;2023-02-28T04:09:29;100577.06;;;-2.21;100.00
70930;BME280;58588;48.102;19.682;2023-02-28T04:12:31;100574.41;;;-2.21;100.00
70930;BME280;58588;48.102;19.682;2023-02-28T04:15:33;100581.47;;;-2.22;100.00
70930;BME280;58588;48.102;19.682;2023-02-28T04:18:35;100582.88;;;-2.14;100.00
70930;BME280;58588;48.102;19.682;2023-02-28T04:21:40;100579.69;;;-2.21;100.00
70930;BME280;58588;48.102;19.682;2023-02-28T04:24:44;100585.66;;;-2.18;100.00
70930;BME280;58588;48.102;19.682;2023-02-28T04:27:46;100580.22;;;-2.14;100.00
70930;BME280;58588;48.102;19.682;2023-02-28T04:30:53;100569.50;;;-2.11;100.00
70930;BME280;58588;48.102;19.682;2023-02-28T04:33:55;100571.06;;;-2.07;100.00
70930;BME280;58588;48.102;19.682;2023-02-28T04:36:57;100559.41;;;-2.03;100.00
70930;BME280;58588;48.102;19.682;2023-02-28T04:40:02;100569.72;;;-1.99;100.00
70930;BME280;58588;48.102;19.682;2023-02-28T04:43:05;100566.00;;;-1.95;100.00
70930;BME280;58588;48.102;19.682;2023-02-28T04:46:08;100563.44;;;-1.96;100.00
70930;BME280;58588;48.102;19.682;2023-02-28T04:49:11;100563.34;;;-1.95;100.00
70930;BME280;58588;48.102;19.682;2023-02-28T04:52:14;100564.06;;;-1.91;100.00
70930;BME280;58588;48.102;19.682;2023-02-28T04:55:17;100564.72;;;-1.88;100.00
70930;BME280;58588;48.102;19.682;2023-02-28T04:58:19;100562.25;;;-1.91;100.00
70930;BME280;58588;48.102;19.682;2023-02-28T05:01:25;100562.69;;;-1.82;100.00
70930;BME280;58588;48.102;19.682;2023-02-28T05:04:28;100564.19;;;-1.94;100.00
70930;BME280;58588;48.102;19.682;2023-02-28T05:07:30;100562.41;;;-1.94;100.00
70930;BME280;58588;48.102;19.682;2023-02-28T05:10:33;100563.88;;;-1.88;100.00
70930;BME280;58588;48.102;19.682;2023-02-28T05:13:35;100557.81;;;-1.90;100.00
70930;BME280;58588;48.102;19.682;2023-02-28T05:16:37;100556.72;;;-1.86;100.00
70930;BME280;58588;48.102;19.682;2023-02-28T05:19:40;100551.03;;;-1.78;100.00
70930;BME280;58588;48.102;19.682;2023-02-28T05:22:42;100550.94;;;-1.77;100.00
70930;BME280;58588;48.102;19.682;2023-02-28T05:25:46;100566.47;;;-2.04;100.00
70930;BME280;58588;48.102;19.682;2023-02-28T05:28:48;100560.25;;;-2.03;100.00
70930;BME280;58588;48.102;19.682;2023-02-28T05:31:50;100566.47;;;-2.04;100.00
70930;BME280;58588;48.102;19.682;2023-02-28T05:34:52;100567.06;;;-1.99;100.00
70930;BME280;58588;48.102;19.682;2023-02-28T05:37:54;100575.69;;;-1.95;100.00
70930;BME280;58588;48.102;19.682;2023-02-28T05:40:58;100577.31;;;-1.93;100.00
70930;BME280;58588;48.102;19.682;2023-02-28T05:44:00;100584.56;;;-1.96;100.00
70930;BME280;58588;48.102;19.682;2023-02-28T05:47:02;100580.34;;;-1.83;100.00
70930;BME280;58588;48.102;19.682;2023-02-28T05:50:05;100583.44;;;-1.92;100.00
70930;BME280;58588;48.102;19.682;2023-02-28T05:53:08;100591.47;;;-1.94;100.00
70930;BME280;58588;48.102;19.682;2023-02-28T05:56:11;100596.28;;;-1.84;100.00
70930;BME280;58588;48.102;19.682;2023-02-28T05:59:13;100601.94;;;-1.75;100.00
70930;BME280;58588;48.102;19.682;2023-02-28T06:02:16;100591.31;;;-1.57;100.00
70930;BME280;58588;48.102;19.682;2023-02-28T06:05:19;100600.25;;;-1.43;100.00
70930;BME280;58588;48.102;19.682;2023-02-28T06:08:21;100604.75;;;-1.45;100.00
70930;BME280;58588;48.102;19.682;2023-02-28T06:11:24;100604.94;;;-1.32;100.00
70930;BME280;58588;48.102;19.682;2023-02-28T06:14:27;100610.63;;;-1.40;100.00
70930;BME280;58588;48.102;19.682;2023-02-28T06:17:29;100612.66;;;-1.45;100.00
70930;BME280;58588;48.102;19.682;2023-02-28T06:20:31;100611.75;;;-1.44;100.00
70930;BME280;58588;48.102;19.682;2023-02-28T06:23:33;100614.94;;;-1.37;100.00
70930;BME280;58588;48.102;19.682;2023-02-28T06:26:37;100620.44;;;-1.42;100.00
70930;BME280;58588;48.102;19.682;2023-02-28T06:29:39;100623.84;;;-1.40;100.00
70930;BME280;58588;48.102;19.682;2023-02-28T06:32:41;100618.53;;;-1.22;100.00
70930;BME280;58588;48.102;19.682;2023-02-28T06:35:44;100621.94;;;-1.04;100.00
70930;BME280;58588;48.102;19.682;2023-02-28T06:38:46;100616.84;;;-0.92;100.00
70930;BME280;58588;48.102;19.682;2023-02-28T06:41:53;100614.69;;;-0.85;100.00
70930;BME280;58588;48.102;19.682;2023-02-28T06:44:55;100613.16;;;-0.73;100.00
70930;BME280;58588;48.102;19.682;2023-02-28T06:47:57;100611.00;;;-0.67;100.00
70930;BME280;58588;48.102;19.682;2023-02-28T06:51:05;100605.13;;;-0.56;100.00
70930;BME280;58588;48.102;19.682;2023-02-28T06:54:07;100608.25;;;-0.49;100.00
70930;BME280;58588;48.102;19.682;2023-02-28T06:57:11;100608.94;;;-0.46;100.00
70930;BME280;58588;48.102;19.682;2023-02-28T07:00:14;100606.81;;;-0.39;100.00
70930;BME280;58588;48.102;19.682;2023-02-28T07:03:16;100601.41;;;-0.38;100.00
70930;BME280;58588;48.102;19.682;2023-02-28T07:06:19;100598.41;;;-0.32;100.00
70930;BME280;58588;48.102;19.682;2023-02-28T07:09:23;100613.41;;;-0.16;100.00
70930;BME280;58588;48.102;19.682;2023-02-28T07:12:26;100614.84;;;-0.11;100.00
70930;BME280;58588;48.102;19.682;2023-02-28T07:15:28;100617.03;;;-0.03;100.00
70930;BME280;58588;48.102;19.682;2023-02-28T07:18:31;100614.59;;;0.08;100.00
70930;BME280;58588;48.102;19.682;2023-02-28T07:21:33;100607.50;;;0.23;100.00
70930;BME280;58588;48.102;19.682;2023-02-28T07:24:35;100624.41;;;0.36;100.00
70930;BME280;58588;48.102;19.682;2023-02-28T07:27:38;100627.44;;;0.44;100.00
70930;BME280;58588;48.102;19.682;2023-02-28T07:30:41;100630.78;;;0.62;100.00
70930;BME280;58588;48.102;19.682;2023-02-28T07:33:43;100627.94;;;0.79;100.00
70930;BME280;58588;48.102;19.682;2023-02-28T07:36:45;100632.56;;;0.90;100.00
70930;BME280;58588;48.102;19.682;2023-02-28T07:39:47;100630.84;;;1.03;100.00
70930;BME280;58588;48.102;19.682;2023-02-28T07:42:50;100629.97;;;1.17;100.00
70930;BME280;58588;48.102;19.682;2023-02-28T07:45:52;100636.84;;;1.34;100.00
70930;BME280;58588;48.102;19.682;2023-02-28T07:48:54;100634.38;;;1.31;100.00
70930;BME280;58588;48.102;19.682;2023-02-28T07:51:59;100634.59;;;1.28;100.00
70930;BME280;58588;48.102;19.682;2023-02-28T07:55:02;100644.59;;;1.37;100.00
70930;BME280;58588;48.102;19.682;2023-02-28T07:58:06;100643.13;;;1.60;100.00
70930;BME280;58588;48.102;19.682;2023-02-28T08:01:09;100645.94;;;1.71;100.00
70930;BME280;58588;48.102;19.682;2023-02-28T08:04:12;100634.63;;;1.68;96.30
70930;BME280;58588;48.102;19.682;2023-02-28T08:07:15;100638.88;;;1.97;98.92
70930;BME280;58588;48.102;19.682;2023-02-28T08:10:17;100637.84;;;2.12;89.15
70930;BME280;58588;48.102;19.682;2023-02-28T08:13:21;100636.78;;;2.28;88.56
70930;BME280;58588;48.102;19.682;2023-02-28T08:16:23;100644.06;;;2.38;84.63
70930;BME280;58588;48.102;19.682;2023-02-28T08:19:25;100624.50;;;2.52;79.32
70930;BME280;58588;48.102;19.682;2023-02-28T08:22:27;100639.25;;;2.31;79.61
70930;BME280;58588;48.102;19.682;2023-02-28T08:25:29;100640.22;;;2.30;84.50
70930;BME280;58588;48.102;19.682;2023-02-28T08:28:32;100632.97;;;2.45;77.79
70930;BME280;58588;48.102;19.682;2023-02-28T08:31:34;100633.75;;;2.59;81.62
70930;BME280;58588;48.102;19.682;2023-02-28T08:34:38;100630.53;;;2.67;78.45
70930;BME280;58588;48.102;19.682;2023-02-28T08:37:41;100636.59;;;2.94;72.03
70930;BME280;58588;48.102;19.682;2023-02-28T08:40:43;100634.03;;;2.93;67.94
70930;BME280;58588;48.102;19.682;2023-02-28T08:43:46;100639.78;;;2.87;67.21
70930;BME280;58588;48.102;19.682;2023-02-28T08:46:48;100631.25;;;2.82;68.18
70930;BME280;58588;48.102;19.682;2023-02-28T08:49:50;100632.34;;;2.79;65.71
70930;BME280;58588;48.102;19.682;2023-02-28T08:52:52;100624.94;;;3.08;65.52
70930;BME280;58588;48.102;19.682;2023-02-28T08:55:58;100633.44;;;3.26;67.50
70930;BME280;58588;48.102;19.682;2023-02-28T08:59:02;100630.59;;;3.40;68.13
70930;BME280;58588;48.102;19.682;2023-02-28T09:02:04;100629.63;;;3.65;64.79
70930;BME280;58588;48.102;19.682;2023-02-28T09:05:07;100633.34;;;3.52;62.64
70930;BME280;58588;48.102;19.682;2023-02-28T09:08:09;100640.72;;;3.48;65.52
70930;BME280;58588;48.102;19.682;2023-02-28T09:11:12;100636.13;;;3.50;64.81
70930;BME280;58588;48.102;19.682;2023-02-28T09:14:16;100632.06;;;3.20;62.66
70930;BME280;58588;48.102;19.682;2023-02-28T09:17:18;100625.91;;;3.68;66.92
70930;BME280;58588;48.102;19.682;2023-02-28T09:20:20;100626.63;;;3.94;65.80
70930;BME280;58588;48.102;19.682;2023-02-28T09:23:22;100633.09;;;4.02;62.29
70930;BME280;58588;48.102;19.682;2023-02-28T09:26:27;100629.94;;;3.73;62.11
70930;BME280;58588;48.102;19.682;2023-02-28T09:29:34;100628.19;;;4.20;64.92
70930;BME280;58588;48.102;19.682;2023-02-28T09:32:36;100630.59;;;4.23;64.05
70930;BME280;58588;48.102;19.682;2023-02-28T09:35:38;100630.88;;;4.43;65.28
70930;BME280;58588;48.102;19.682;2023-02-28T09:38:40;100635.66;;;4.50;65.63
70930;BME280;58588;48.102;19.682;2023-02-28T09:41:44;100643.94;;;4.70;63.18
70930;BME280;58588;48.102;19.682;2023-02-28T09:44:52;100635.09;;;4.23;60.68
70930;BME280;58588;48.102;19.682;2023-02-28T09:47:58;100638.00;;;4.31;62.56
70930;BME280;58588;48.102;19.682;2023-02-28T09:51:03;100637.25;;;4.64;61.16
70930;BME280;58588;48.102;19.682;2023-02-28T09:54:05;100634.31;;;4.67;62.43
70930;BME280;58588;48.102;19.682;2023-02-28T09:57:13;100634.78;;;4.39;60.07
70930;BME280;58588;48.102;19.682;2023-02-28T10:00:19;100637.75;;;4.80;62.04
70930;BME280;58588;48.102;19.682;2023-02-28T10:03:29;100639.06;;;4.97;62.15
70930;BME280;58588;48.102;19.682;2023-02-28T10:06:35;100640.03;;;5.19;58.06
70930;BME280;58588;48.102;19.682;2023-02-28T10:09:40;100637.16;;;5.65;62.21
70930;BME280;58588;48.102;19.682;2023-02-28T10:12:44;100630.50;;;5.48;59.87
70930;BME280;58588;48.102;19.682;2023-02-28T10:15:52;100634.25;;;5.57;59.33
70930;BME280;58588;48.102;19.682;2023-02-28T10:19:01;100631.03;;;5.31;57.92
70930;BME280;58588;48.102;19.682;2023-02-28T10:22:09;100623.28;;;5.17;60.49
70930;BME280;58588;48.102;19.682;2023-02-28T10:25:18;100621.91;;;5.33;56.01
70930;BME280;58588;48.102;19.682;2023-02-28T10:28:20;100612.97;;;5.55;59.10
70930;BME280;58588;48.102;19.682;2023-02-28T10:31:24;100612.19;;;5.76;56.90
70930;BME280;58588;48.102;19.682;2023-02-28T10:34:26;100606.19;;;5.83;55.32
70930;BME280;58588;48.102;19.682;2023-02-28T10:37:28;100613.13;;;5.43;57.96
70930;BME280;58588;48.102;19.682;2023-02-28T10:40:33;100616.03;;;5.51;57.16
70930;BME280;58588;48.102;19.682;2023-02-28T10:43:38;100598.31;;;5.82;55.43
70930;BME280;58588;48.102;19.682;2023-02-28T10:46:42;100598.88;;;5.85;58.60
70930;BME280;58588;48.102;19.682;2023-02-28T10:49:48;100595.22;;;5.86;57.66
70930;BME280;58588;48.102;19.682;2023-02-28T10:52:53;100597.28;;;5.62;55.63
70930;BME280;58588;48.102;19.682;2023-02-28T10:56:00;100598.06;;;5.74;56.60
70930;BME280;58588;48.102;19.682;2023-02-28T10:59:22;100586.25;;;6.50;56.85
70930;BME280;58588;48.102;19.682;2023-02-28T11:02:33;100585.13;;;6.53;55.28
70930;BME280;58588;48.102;19.682;2023-02-28T11:05:36;100586.72;;;6.34;54.31
70930;BME280;58588;48.102;19.682;2023-02-28T11:08:45;100577.84;;;5.92;54.17
70930;BME280;58588;48.102;19.682;2023-02-28T11:11:48;100576.47;;;6.39;56.73
70930;BME280;58588;48.102;19.682;2023-02-28T11:14:54;100580.38;;;6.35;54.74
70930;BME280;58588;48.102;19.682;2023-02-28T11:18:02;100573.88;;;6.89;56.58
70930;BME280;58588;48.102;19.682;2023-02-28T11:21:08;100561.13;;;6.72;55.95
70930;BME280;58588;48.102;19.682;2023-02-28T11:24:18;100557.41;;;6.63;55.29
70930;BME280;58588;48.102;19.682;2023-02-28T11:27:44;100552.44;;;6.59;54.86
70930;BME280;58588;48.102;19.682;2023-02-28T11:31:00;100543.19;;;7.13;55.04
70930;BME280;58588;48.102;19.682;2023-02-28T11:34:23;100545.19;;;7.30;53.84
70930;BME280;58588;48.102;19.682;2023-02-28T11:37:27;100542.13;;;7.44;55.37
70930;BME280;58588;48.102;19.682;2023-02-28T11:40:39;100543.66;;;7.47;53.11
70930;BME280;58588;48.102;19.682;2023-02-28T11:43:57;100537.31;;;7.77;53.59
70930;BME280;58588;48.102;19.682;2023-02-28T11:47:07;100543.88;;;7.05;54.11
70930;BME280;58588;48.102;19.682;2023-02-28T11:50:21;100536.31;;;7.59;53.95
70930;BME280;58588;48.102;19.682;2023-02-28T11:53:51;100531.03;;;6.99;55.11
70930;BME280;58588;48.102;19.682;2023-02-28T11:57:00;100529.69;;;7.34;54.33
70930;BME280;58588;48.102;19.682;2023-02-28T12:00:15;100529.41;;;7.46;54.72
70930;BME280;58588;48.102;19.682;2023-02-28T12:03:27;100530.94;;;7.20;53.29
70930;BME280;58588;48.102;19.682;2023-02-28T12:06:38;100528.00;;;7.33;52.42
70930;BME280;58588;48.102;19.682;2023-02-28T12:09:50;100534.63;;;7.87;54.12
70930;BME280;58588;48.102;19.682;2023-02-28T12:13:10;100532.59;;;8.08;51.65
70930;BME280;58588;48.102;19.682;2023-02-28T12:16:45;100525.56;;;7.97;54.29
70930;BME280;58588;48.102;19.682;2023-02-28T12:19:58;100521.81;;;8.27;54.73
70930;BME280;58588;48.102;19.682;2023-02-28T12:23:25;100514.38;;;8.12;54.93
70930;BME280;58588;48.102;19.682;2023-02-28T12:26:36;100504.41;;;7.56;52.78
70930;BME280;58588;48.102;19.682;2023-02-28T12:29:46;100514.13;;;7.37;52.27
70930;BME280;58588;48.102;19.682;2023-02-28T12:32:52;100511.69;;;8.02;55.61
70930;BME280;58588;48.102;19.682;2023-02-28T12:35:57;100506.00;;;8.24;55.19
70930;BME280;58588;48.102;19.682;2023-02-28T12:39:05;100500.72;;;7.86;53.18
70930;BME280;58588;48.102;19.682;2023-02-28T12:42:11;100497.50;;;8.29;52.79
70930;BME280;58588;48.102;19.682;2023-02-28T12:45:18;100494.50;;;8.32;54.27
70930;BME280;58588;48.102;19.682;2023-02-28T12:48:25;100495.94;;;8.26;51.21
70930;BME280;58588;48.102;19.682;2023-02-28T12:51:29;100486.78;;;8.29;52.34
70930;BME280;58588;48.102;19.682;2023-02-28T12:54:38;100488.78;;;8.08;52.98
70930;BME280;58588;48.102;19.682;2023-02-28T12:57:47;100491.28;;;8.28;52.09
70930;BME280;58588;48.102;19.682;2023-02-28T13:01:07;100489.16;;;8.32;52.03
70930;BME280;58588;48.102;19.682;2023-02-28T13:04:45;100484.09;;;7.63;52.55
70930;BME280;58588;48.102;19.682;2023-02-28T13:11:42;100483.75;;;7.85;52.79
70930;BME280;58588;48.102;19.682;2023-02-28T13:14:45;100490.38;;;8.00;52.37
70930;BME280;58588;48.102;19.682;2023-02-28T13:17:49;100477.16;;;7.70;51.30
70930;BME280;58588;48.102;19.682;2023-02-28T13:20:52;100480.63;;;7.99;52.97
70930;BME280;58588;48.102;19.682;2023-02-28T13:24:02;100482.22;;;7.73;53.14
70930;BME280;58588;48.102;19.682;2023-02-28T13:27:33;100472.03;;;7.86;53.32
70930;BME280;58588;48.102;19.682;2023-02-28T13:31:05;100474.56;;;7.88;54.96
70930;BME280;58588;48.102;19.682;2023-02-28T13:34:15;100468.91;;;7.91;53.66
70930;BME280;58588;48.102;19.682;2023-02-28T13:37:35;100469.63;;;7.73;56.03
70930;BME280;58588;48.102;19.682;2023-02-28T13:40:38;100471.34;;;7.55;54.25
70930;BME280;58588;48.102;19.682;2023-02-28T13:44:01;100467.16;;;8.19;54.57
70930;BME280;58588;48.102;19.682;2023-02-28T13:47:24;100467.56;;;8.24;53.27
70930;BME280;58588;48.102;19.682;2023-02-28T13:50:34;100462.91;;;8.16;54.34
70930;BME280;58588;48.102;19.682;2023-02-28T13:53:56;100469.25;;;8.25;52.15
70930;BME280;58588;48.102;19.682;2023-02-28T13:57:14;100466.88;;;8.22;55.33
70930;BME280;58588;48.102;19.682;2023-02-28T14:00:33;100463.19;;;8.13;55.05
70930;BME280;58588;48.102;19.682;2023-02-28T14:07:00;100467.66;;;7.85;56.01
70930;BME280;58588;48.102;19.682;2023-02-28T14:10:05;100462.13;;;7.96;57.40
70930;BME280;58588;48.102;19.682;2023-02-28T14:13:14;100464.28;;;7.73;55.35
70930;BME280;58588;48.102;19.682;2023-02-28T14:16:43;100465.72;;;7.68;54.72
70930;BME280;58588;48.102;19.682;2023-02-28T14:19:46;100461.47;;;7.65;52.51
70930;BME280;58588;48.102;19.682;2023-02-28T14:22:56;100468.00;;;7.34;53.87
70930;BME280;58588;48.102;19.682;2023-02-28T14:26:18;100469.09;;;7.02;54.72
70930;BME280;58588;48.102;19.682;2023-02-28T14:29:41;100459.94;;;7.24;54.56
70930;BME280;58588;48.102;19.682;2023-02-28T14:32:50;100460.66;;;7.26;54.94
70930;BME280;58588;48.102;19.682;2023-02-28T14:36:18;100458.25;;;8.09;54.19
70930;BME280;58588;48.102;19.682;2023-02-28T14:39:24;100464.28;;;8.40;51.04
70930;BME280;58588;48.102;19.682;2023-02-28T14:42:29;100461.13;;;8.44;51.83
70930;BME280;58588;48.102;19.682;2023-02-28T14:45:33;100458.00;;;8.76;52.15
70930;BME280;58588;48.102;19.682;2023-02-28T14:48:39;100454.03;;;9.16;49.54
70930;BME280;58588;48.102;19.682;2023-02-28T14:51:42;100450.69;;;10.54;48.86
70930;BME280;58588;48.102;19.682;2023-02-28T14:54:44;100455.63;;;12.62;43.67
70930;BME280;58588;48.102;19.682;2023-02-28T14:57:51;100450.47;;;12.83;42.20
70930;BME280;58588;48.102;19.682;2023-02-28T15:00:55;100455.88;;;13.15;40.39
70930;BME280;58588;48.102;19.682;2023-02-28T15:04:03;100450.34;;;12.69;40.15
70930;BME280;58588;48.102;19.682;2023-02-28T15:07:09;100444.94;;;13.00;40.69
70930;BME280;58588;48.102;19.682;2023-02-28T15:10:16;100447.44;;;14.16;39.20
70930;BME280;58588;48.102;19.682;2023-02-28T15:13:19;100445.84;;;13.23;40.32
70930;BME280;58588;48.102;19.682;2023-02-28T15:16:23;100442.09;;;11.17;44.72
70930;BME280;58588;48.102;19.682;2023-02-28T15:19:30;100441.78;;;10.61;45.58
70930;BME280;58588;48.102;19.682;2023-02-28T15:22:36;100448.34;;;9.73;46.57
70930;BME280;58588;48.102;19.682;2023-02-28T15:25:40;100438.16;;;9.84;47.97
70930;BME280;58588;48.102;19.682;2023-02-28T15:28:43;100440.56;;;10.22;48.28
70930;BME280;58588;48.102;19.682;2023-02-28T15:31:49;100432.25;;;9.63;49.55
70930;BME280;58588;48.102;19.682;2023-02-28T15:34:52;100439.34;;;8.47;51.94
70930;BME280;58588;48.102;19.682;2023-02-28T15:37:57;100436.31;;;7.86;53.70
70930;BME280;58588;48.102;19.682;2023-02-28T15:40:59;100438.50;;;7.34;55.21
70930;BME280;58588;48.102;19.682;2023-02-28T15:44:25;100434.81;;;7.06;56.37
70930;BME280;58588;48.102;19.682;2023-02-28T15:47:30;100430.41;;;6.85;59.25
70930;BME280;58588;48.102;19.682;2023-02-28T15:50:34;100431.09;;;6.68;61.03
70930;BME280;58588;48.102;19.682;2023-02-28T15:53:47;100430.09;;;6.19;62.48
70930;BME280;58588;48.102;19.682;2023-02-28T15:56:52;100430.50;;;6.14;63.61
70930;BME280;58588;48.102;19.682;2023-02-28T15:59:57;100434.06;;;5.94;64.76
70930;BME280;58588;48.102;19.682;2023-02-28T16:03:00;100425.56;;;5.89;68.26
70930;BME280;58588;48.102;19.682;2023-02-28T16:06:26;100424.78;;;5.56;69.59
70930;BME280;58588;48.102;19.682;2023-02-28T16:09:28;100436.34;;;5.36;71.19
70930;BME280;58588;48.102;19.682;2023-02-28T16:12:34;100433.53;;;5.37;71.96
70930;BME280;58588;48.102;19.682;2023-02-28T16:15:38;100440.31;;;5.42;71.27
70930;BME280;58588;48.102;19.682;2023-02-28T16:18:43;100430.59;;;5.41;69.82